Latest Weather Observations for Cooma Airport

IDN60801

Issued at 10:32 am EST Friday 31 July 2015 (issued every 30 minutes, with the page automatically refreshed every 10 minutes)

About weather observations | Map of weather stations | Latest weather observations for NSW | Other Formats
Station Details ID: 070217 Name: COOMA AIRPORT AWS Lat: -36.29 Lon: 148.97 Height: 930.0 m
Data from the previous 72 hours. | See also: Recent months for locations in New South Wales
Date/Time
EST
Temp
°C
App
Temp
°C
Dew
Point
Rel
Hum
%
Delta-T
°C
Wind Press
QNH
hPa
Press
MSL
hPa
Rain
since 9 am
mm
Dir
 
Spd
km/h
Gust
km/h
Spd
kts
Gust
kts
31/10:30am 8.6 6.4 0.8 58 3.3 SE 2 9 1 5 1019.5 1021.2 0.0
31/10:00am 8.1 4.9 0.6 59 3.2 NNE 7 11 4 6 1019.5 1021.2 0.0
31/09:30am 7.2 4.1 1.5 67 2.4 NE 7 11 4 6 1019.4 1021.1 0.0
31/09:00am 5.0 3.2 1.3 77 1.5 CALM 0 0 0 0 1019.3 1020.9 0.0
31/08:30am 3.8 2.0 1.2 83 1.1 CALM 0 0 0 0 1019.2 1020.8 0.0
31/08:00am 3.4 0.8 0.8 83 1.1 N 4 7 2 4 1018.7 1020.4 0.0
31/07:30am 1.7 -0.3 0.2 90 0.6 CALM 0 0 0 0 1018.5 1020.2 0.0
31/07:00am 0.5 -1.7 -1.3 88 0.7 CALM 0 0 0 0 1017.9 1019.5 0.0
31/06:30am 0.9 -1.6 -1.2 86 0.8 N 2 11 1 6 1017.2 1018.8 0.0
31/06:00am 0.4 -3.3 -3.0 78 1.2 ESE 7 9 4 5 1016.7 1018.3 0.0
31/05:30am 3.1 -1.4 0.0 80 1.2 W 13 17 7 9 1016.2 1017.8 0.0
31/05:00am 2.9 -0.8 -0.2 80 1.2 W 9 11 5 6 1016.0 1017.6 0.0
31/04:30am 2.9 -0.4 -0.9 76 1.5 SSE 6 11 3 6 1015.8 1017.4 0.0
31/04:00am 4.5 -1.1 0.1 73 1.8 NW 19 26 10 14 1015.3 1016.9 0.0
31/03:30am 4.3 0.6 -0.1 73 1.8 NW 9 15 5 8 1015.7 1017.2 0.0
31/03:00am 5.2 0.0 0.4 71 2.0 NW 17 28 9 15 1015.6 1017.1 0.0
31/02:30am 5.5 -0.1 -0.1 67 2.3 NW 19 24 10 13 1015.8 1017.4 0.0
31/02:00am 5.1 -0.6 -0.7 66 2.3 NW 19 28 10 15 1015.8 1017.4 0.0
31/01:30am 5.3 -1.3 -0.7 65 2.4 WNW 24 35 13 19 1016.1 1017.7 0.0
31/01:00am 5.4 -1.7 -1.1 63 2.6 NW 26 39 14 21 1015.8 1017.4 0.0
31/12:30am 5.6 -1.2 -1.5 60 2.8 NW 24 32 13 17 1016.4 1018.0 0.0
31/12:00am 5.7 -1.5 -1.7 59 2.9 NW 26 37 14 20 1016.5 1018.1 0.0
 
Date/Time
EST
Temp
°C
App
Temp
°C
Dew
Point
Rel
Hum
%
Delta-T
°C
Wind Press
QNH
hPa
Press
MSL
hPa
Rain
since 9 am
mm
Dir
 
Spd
km/h
Gust
km/h
Spd
kts
Gust
kts
30/11:30pm 5.4 -0.4 -1.7 60 2.8 N 19 28 10 15 1016.5 1018.1 0.0
30/11:00pm 5.5 -1.7 -1.9 59 2.9 NW 26 35 14 19 1016.8 1018.4 0.0
30/10:30pm 5.3 -2.2 -1.6 61 2.7 NW 28 39 15 21 1016.7 1018.3 0.0
30/10:00pm 5.0 -0.7 -0.8 66 2.3 NNW 19 35 10 19 1016.9 1018.5 0.0
30/09:30pm 3.3 -2.1 -1.1 73 1.7 NNW 17 20 9 11 1016.8 1018.4 0.0
30/09:00pm 3.0 -1.7 -1.5 72 1.7 N 13 17 7 9 1016.8 1018.4 0.0
30/08:30pm 4.2 -0.7 -0.8 70 2.0 N 15 19 8 10 1017.1 1018.7 0.0
30/08:00pm 4.5 -0.1 -0.9 68 2.1 N 13 19 7 10 1016.9 1018.5 0.0
30/07:30pm 4.7 -0.3 -0.9 67 2.2 N 15 20 8 11 1017.1 1018.7 0.0
30/07:00pm 5.5 -2.8 -0.3 66 2.3 NW 33 50 18 27 1016.4 1018.0 0.0
30/06:50pm 5.7 -2.5 -0.8 63 2.6 NW 32 54 17 29 1015.8 1017.4 0.0
30/06:47pm 5.7 -1.3 -0.8 63 2.6 NW 26 43 14 23 1015.8 1017.4 0.0
30/06:30pm 5.5 1.0 -0.3 66 2.3 WNW 13 24 7 13 1015.7 1017.2 0.0
30/06:02pm 5.5 -2.8 -0.1 67 2.3 NNW 33 52 18 28 1014.8 1016.3 0.0
30/06:00pm 5.5 -3.2 -0.3 66 2.3 NNW 35 52 19 28 1014.9 1016.5 0.0
30/05:30pm 6.3 -3.5 0.0 64 2.6 NW 41 59 22 32 1015.2 1016.8 0.0
30/05:17pm 6.9 -0.4 -0.1 61 2.9 NW 28 46 15 25 1015.5 1017.0 0.0
30/05:00pm 7.3 1.7 0.1 60 3.0 N 19 26 10 14 1016.1 1017.7 0.0
30/04:30pm 8.4 2.6 -0.1 55 3.6 NW 20 37 11 20 1016.0 1017.6 0.0
30/04:00pm 7.6 3.0 -0.8 55 3.4 NNW 13 20 7 11 1016.7 1018.3 0.0
30/03:30pm 7.8 2.9 -3.1 46 4.2 NW 13 30 7 16 1016.8 1018.4 0.0
30/03:00pm 8.4 3.5 -3.4 43 4.6 NW 13 24 7 13 1017.1 1018.7 0.0
30/02:30pm 8.7 3.8 -3.5 42 4.7 WNW 13 24 7 13 1017.5 1019.1 0.0
30/02:00pm 8.8 2.2 -3.4 42 4.7 NW 22 35 12 19 1018.2 1019.8 0.0
30/01:30pm 9.0 2.9 -3.9 40 5.0 NW 19 33 10 18 1018.6 1020.3 0.0
30/01:00pm 9.0 2.9 -3.5 41 4.8 NNW 19 28 10 15 1019.2 1020.8 0.0
30/12:30pm 10.2 3.2 -3.1 39 5.3 NNW 24 35 13 19 1019.7 1021.4 0.0
30/12:00pm 10.5 4.0 -2.5 40 5.2 NW 22 30 12 16 1020.3 1021.9 0.0
30/11:30am 9.6 3.7 -2.3 43 4.8 N 19 28 10 15 1020.7 1022.4 0.0
30/11:00am 8.9 1.3 -1.8 47 4.3 NW 28 35 15 19 1021.0 1022.7 0.0
30/10:30am 8.5 0.3 -1.3 50 4.0 NNW 32 41 17 22 1020.7 1022.4 0.0
30/10:00am 7.7 0.2 -1.5 52 3.7 NNW 28 35 15 19 1020.9 1022.6 0.0
30/09:30am 7.2 1.9 -0.7 57 3.2 N 17 28 9 15 1021.7 1023.4 0.0
30/09:00am 6.0 -0.8 -1.9 57 3.1 NNW 24 33 13 18 1021.9 1023.6 0.0
30/08:30am 5.3 0.5 -2.3 58 2.9 N 13 19 7 10 1022.3 1024.1 0.0
30/08:00am 4.1 -1.0 -2.3 63 2.4 N 15 22 8 12 1022.2 1024.0 0.0
30/07:30am 0.4 -4.5 -3.5 75 1.4 NNE 13 15 7 8 1022.5 1024.2 0.0
30/07:00am 0.9 -3.5 -2.7 77 1.3 ENE 11 15 6 8 1022.2 1024.0 0.0
30/06:30am 1.1 -5.2 -3.6 71 1.7 N 20 22 11 12 1022.1 1023.9 0.0
30/06:00am 2.0 -3.7 -3.7 66 2.1 NNE 17 22 9 12 1022.3 1024.1 0.0
30/05:30am 1.5 -2.7 -3.6 69 1.9 NNE 9 17 5 9 1022.3 1024.1 0.0
30/05:00am 2.9 -3.3 -3.0 65 2.2 ENE 20 24 11 13 1022.6 1024.3 0.0
30/04:30am 1.8 -2.6 -2.7 72 1.6 NNE 11 13 6 7 1023.0 1024.7 0.0
30/04:00am 2.2 -1.6 -3.5 66 2.0 NNE 7 11 4 6 1023.2 1025.0 0.0
30/03:30am 4.0 -0.9 -3.5 58 2.7 NNW 13 22 7 12 1023.7 1025.4 0.0
30/03:00am 4.5 -0.8 -3.3 57 2.9 NNW 15 22 8 12 1024.1 1025.9 0.0
30/02:30am 2.6 -1.9 -2.9 67 2.0 NNE 11 20 6 11 1024.4 1026.2 0.0
30/02:00am 2.5 -2.3 -2.2 71 1.7 NE 13 19 7 10 1024.6 1026.4 0.0
30/01:30am 2.3 -2.1 -2.4 71 1.7 NNE 11 15 6 8 1025.2 1027.0 0.0
30/01:00am 2.9 -3.0 -2.4 68 2.0 N 19 26 10 14 1025.0 1026.8 0.0
30/12:30am 3.3 -3.1 -2.0 68 2.0 NE 22 30 12 16 1025.6 1027.4 0.0
30/12:00am 3.1 -2.7 -1.3 73 1.7 N 19 24 10 13 1026.2 1028.0 0.0
 
Date/Time
EST
Temp
°C
App
Temp
°C
Dew
Point
Rel
Hum
%
Delta-T
°C
Wind Press
QNH
hPa
Press
MSL
hPa
Rain
since 9 am
mm
Dir
 
Spd
km/h
Gust
km/h
Spd
kts
Gust
kts
29/11:30pm 2.6 -3.2 0.0 83 1.0 NE 20 24 11 13 1026.4 1028.2 0.0
29/11:00pm 2.5 -3.0 0.4 86 0.8 NE 19 22 10 12 1026.9 1028.8 0.0
29/10:30pm 2.2 -3.0 -0.2 84 0.9 NE 17 22 9 12 1027.2 1029.0 0.0
29/10:00pm 2.3 -2.2 -0.3 83 1.0 ENE 13 17 7 9 1027.3 1029.1 0.0
29/09:30pm 2.3 -3.0 -0.4 82 1.1 NE 17 17 9 9 1027.4 1029.2 0.0
29/09:00pm 2.9 -2.0 -0.2 80 1.2 NE 15 19 8 10 1027.4 1029.2 0.0
29/08:30pm 3.0 -2.6 -0.3 79 1.3 NE 19 20 10 11 1027.2 1029.0 0.0
29/08:00pm 3.6 -1.3 -0.2 76 1.5 NE 15 17 8 9 1027.7 1029.6 0.0
29/07:30pm 2.4 -1.5 -1.4 76 1.4 N 9 17 5 9 1027.9 1029.8 0.0
29/07:00pm 3.3 -0.1 -0.9 74 1.6 N 7 9 4 5 1028.0 1029.9 0.0
29/06:30pm 5.1 1.3 -0.5 67 2.2 NE 9 13 5 7 1027.8 1029.7 0.0
29/06:00pm 6.6 2.5 0.1 63 2.7 N 11 17 6 9 1027.8 1029.7 0.0
29/05:30pm 7.1 3.4 -0.1 60 3.0 N 9 15 5 8 1027.6 1029.4 0.0
29/05:00pm 8.0 3.5 -0.2 56 3.4 NNE 13 17 7 9 1027.6 1029.4 0.0
29/04:30pm 9.0 4.0 1.4 59 3.3 NNE 17 26 9 14 1027.5 1029.3 0.0
29/04:00pm 9.6 5.0 1.8 58 3.4 NNE 15 20 8 11 1027.5 1029.3 0.0
29/03:30pm 10.7 5.8 1.8 54 4.0 NNE 17 20 9 11 1027.6 1029.4 0.0
29/03:00pm 10.7 5.7 1.5 53 4.1 NE 17 22 9 12 1027.8 1029.7 0.0
29/02:30pm 11.4 5.6 2.2 53 4.2 NE 22 28 12 15 1027.5 1029.3 0.0
29/02:00pm 11.3 5.8 2.1 53 4.1 NNE 20 28 11 15 1027.8 1029.7 0.0
29/01:30pm 11.5 5.9 0.9 48 4.7 NNE 20 28 11 15 1028.0 1029.9 0.0
29/01:00pm 11.0 5.8 0.4 48 4.6 NNE 17 26 9 14 1028.9 1030.8 0.0
29/12:30pm 10.6 5.0 0.9 51 4.2 NNE 20 28 11 15 1029.7 1031.6 0.0
29/12:00pm 9.6 4.5 3.1 64 2.9 NE 19 22 10 12 1030.4 1032.4 0.0
29/11:30am 8.1 2.7 2.4 67 2.5 NE 20 24 11 13 1031.2 1033.1 0.0
29/11:00am 6.7 0.9 2.2 73 1.9 NE 22 26 12 14 1031.8 1033.7 0.0
29/10:30am 5.4 -0.8 2.1 79 1.4 NE 24 28 13 15 1032.1 1034.0 0.0
29/10:00am 3.6 -1.9 1.6 87 0.8 NE 20 26 11 14 1032.4 1034.4 0.0
29/09:30am 1.9 -3.5 1.0 94 0.4 NE 19 22 10 12 1032.6 1034.6 0.0
29/09:00am 0.2 -5.4 0.1 99 0.0 NE 19 22 10 12 1033.0 1034.9 0.0
29/08:30am -0.9 -6.3 -1.0 99 0.0 NE 17 20 9 11 1033.1 1035.0 0.0
29/08:00am -1.9 -6.6 -2.0 99 -0.1 NE 13 15 7 8 1033.1 1035.0 0.0
29/07:48am -2.7 -7.5 -2.8 99 -0.1 NE 13 15 7 8 1033.1 1035.0 0.0
29/07:44am -2.8 -7.6 -2.9 99 -0.1 NE 13 15 7 8 1033.1 1035.0 0.0
29/07:30am -3.8 -8.0 -3.9 99 -0.1 NE 9 13 5 7 1033.1 1035.0 0.0
29/07:15am -5.4 -9.8 -5.7 98 -0.1 NNE 9 11 5 6 1032.9 1034.8 0.0
29/07:00am -5.4 -10.1 -5.5 99 -0.2 NNE 11 11 6 6 1032.6 1034.6 0.0
29/06:30am -5.1 -9.5 -5.4 98 -0.1 N 9 9 5 5 1032.6 1034.6 0.0
29/06:15am -3.8 -8.0 -3.9 99 -0.1 N 9 11 5 6 1032.5 1034.5 0.0
29/06:12am -4.3 -8.6 -4.4 99 -0.1 NNE 9 11 5 6 1032.5 1034.5 0.0
29/06:00am -4.9 -9.2 -5.0 99 -0.2 NNE 9 11 5 6 1032.3 1034.3 0.0
29/05:30am -4.4 -8.7 -4.5 99 -0.2 NNE 9 9 5 5 1031.9 1033.8 0.0
29/05:00am -5.1 -8.1 -5.2 99 -0.2 N 2 6 1 3 1031.9 1033.8 0.0
29/04:30am -5.0 -8.8 -5.1 99 -0.2 NNE 6 9 3 5 1031.9 1033.8 0.0
29/04:00am -4.5 -8.2 -4.6 99 -0.2 NNE 6 7 3 4 1032.1 1034.0 0.0
29/03:30am -3.8 -7.6 -3.9 99 -0.1 NNE 7 9 4 5 1032.1 1034.0 0.0
29/03:00am -3.0 -5.8 -3.1 99 -0.1 NNE 2 7 1 4 1032.1 1034.0 0.0
29/02:31am -3.6 -7.2 -3.7 99 -0.1 NNE 6 11 3 6 1032.2 1034.2 0.0
29/02:30am -3.8 -7.5 -4.1 98 -0.1 NNE 6 11 3 6 1032.2 1034.2 0.0
29/02:22am -4.4 -8.4 -5.4 93 0.1 N 7 11 4 6 1032.2 1034.2 0.0
29/02:00am -2.9 -5.3 -3.0 99 -0.1 CALM 0 0 0 0 1032.4 1034.4 0.0
29/01:59am -2.8 -5.2 -2.9 99 -0.1 CALM 0 0 0 0 1032.4 1034.4 0.0
29/01:53am -2.4 -5.1 -2.5 99 -0.1 NE 2 6 1 3 1032.3 1034.3 0.0
29/01:30am -2.4 -5.1 -2.7 98 0.0 E 2 7 1 4 1032.4 1034.4 0.0
29/01:00am -0.6 -2.7 -0.7 99 0.0 CALM 0 0 0 0 1032.5 1034.5 0.0
29/12:30am -0.7 -3.6 -0.8 99 0.0 NNE 4 6 2 3 1032.4 1034.4 0.0
29/12:00am -0.3 -2.4 -1.1 94 0.3 CALM 0 0 0 0 1032.5 1034.5 0.0
 
Date/Time
EST
Temp
°C
App
Temp
°C
Dew
Point
Rel
Hum
%
Delta-T
°C
Wind Press
QNH
hPa
Press
MSL
hPa
Rain
since 9 am
mm
Dir
 
Spd
km/h
Gust
km/h
Spd
kts
Gust
kts
28/11:30pm 1.6 -0.2 1.5 99 0.0 CALM 0 0 0 0 1032.6 1034.6 0.0
28/11:00pm 1.5 -0.3 1.4 99 0.0 CALM 0 0 0 0 1032.5 1034.5 0.0
28/10:30pm 2.0 0.3 1.9 99 0.0 CALM 0 0 0 0 1032.6 1034.6 0.0
28/10:00pm 1.5 -0.3 1.4 99 0.0 CALM 0 0 0 0 1032.6 1034.6 0.0
28/09:30pm 1.2 -0.6 1.1 99 0.0 CALM 0 0 0 0 1032.7 1034.7 0.0
28/09:00pm 0.1 -2.3 -0.2 98 0.1 SW 2 7 1 4 1032.7 1034.7 0.0
28/08:30pm 0.6 -3.4 0.2 97 0.2 WSW 11 11 6 6 1032.6 1034.6 0.0
28/08:00pm 0.7 -2.7 -0.6 91 0.5 WSW 7 7 4 4 1032.3 1034.3 0.0
28/07:30pm 1.8 -2.5 1.2 96 0.2 SW 13 15 7 8 1032.2 1034.2 0.0
28/07:00pm 1.4 -2.6 0.5 94 0.4 SSW 11 13 6 7 1032.0 1033.9 0.0
28/06:30pm 2.0 -1.6 0.4 89 0.6 SW 9 11 5 6 1031.6 1033.6 0.0
28/06:00pm 3.5 0.1 2.0 90 0.6 WSW 9 15 5 8 1031.2 1033.1 0.0
28/05:30pm 2.9 -1.1 0.3 83 1.0 SSW 11 11 6 6 1030.8 1032.7 0.0
28/05:00pm 5.5 0.0 2.0 78 1.5 S 20 26 11 14 1030.6 1032.5 0.0
28/04:30pm 7.0 1.4 1.3 67 2.4 SSW 20 26 11 14 1030.1 1032.0 0.0
28/04:00pm 7.4 1.2 1.9 68 2.4 S 24 30 13 16 1030.1 1032.0 0.0
28/03:30pm 7.7 1.5 2.0 67 2.5 S 24 30 13 16 1030.0 1031.9 0.0
28/03:00pm 8.9 3.3 1.1 58 3.3 SSW 20 30 11 16 1029.9 1031.8 0.0
28/02:30pm 8.0 2.6 2.3 67 2.5 SSW 20 30 11 16 1029.9 1031.8 0.0
28/02:00pm 7.8 0.9 2.3 68 2.4 S 28 33 15 18 1029.7 1031.6 0.0
28/01:30pm 8.5 2.7 2.1 64 2.8 S 22 30 12 16 1029.8 1031.7 0.0
28/01:00pm 8.7 1.9 0.9 58 3.3 SSW 26 32 14 17 1030.0 1031.9 0.0
28/12:30pm 8.9 1.0 0.9 57 3.4 SSW 32 43 17 23 1030.1 1032.0 0.0
28/12:00pm 9.2 2.1 1.4 58 3.4 SSW 28 37 15 20 1030.8 1032.7 0.0
28/11:30am 8.4 1.0 1.8 63 2.9 SSW 30 39 16 21 1031.1 1033.0 0.0
28/11:00am 8.3 1.9 3.0 69 2.4 SSW 26 35 14 19 1031.4 1033.4 0.0

Other Formats:

Comma delimited format used in spreadsheet applications
http://www.bom.gov.au/fwo/IDN60801/IDN60801.94921.axf

JavaScript Object Notation format (JSON) in row-major order
http://www.bom.gov.au/fwo/IDN60801/IDN60801.94921.json